Time;durP1;ratioP1;P1;durP2;ratioP2;P2;SDS_P1;SDS_P2;PMS_P1;PMS_P2;Temp;Humidity;BMP_temperature;BMP_pressure;BME280_temperature;BME280_humidity;BME280_pressure;Samples;Min_cycle;Max_cycle;Signal;HPM_P1;HPM_P2
2023/04/08 00:00:57;;;;;;;1.73;0.80;;;;;;;;;;5052659;28;20494;-69
2023/04/08 00:03:23;;;;;;;1.10;0.80;;;;;;;;;;5052613;28;20054;-68
2023/04/08 00:05:49;;;;;;;1.48;1.00;;;;;;;;;;5052356;28;20025;-69
2023/04/08 00:08:16;;;;;;;1.75;0.80;;;;;;;;;;5052266;28;20501;-69
2023/04/08 00:10:42;;;;;;;4.57;0.80;;;;;;;;;;5052332;28;20017;-69
2023/04/08 00:13:09;;;;;;;2.15;0.88;;;;;;;;;;5052097;28;20041;-69
2023/04/08 00:15:36;;;;;;;2.50;0.98;;;;;;;;;;5051972;28;20082;-69
2023/04/08 00:18:02;;;;;;;2.15;1.15;;;;;;;;;;5052365;28;20032;-69
2023/04/08 00:20:28;;;;;;;2.63;1.15;;;;;;;;;;5052277;28;20489;-69
2023/04/08 00:22:55;;;;;;;2.92;1.20;;;;;;;;;;5052099;28;20025;-68
2023/04/08 00:25:21;;;;;;;4.45;1.30;;;;;;;;;;5052437;28;20033;-69
2023/04/08 00:27:47;;;;;;;2.53;1.20;;;;;;;;;;5051966;28;20097;-69
2023/04/08 00:30:14;;;;;;;3.30;1.10;;;;;;;;;;5052114;28;20049;-69
2023/04/08 00:32:40;;;;;;;1.40;0.90;;;;;;;;;;5052139;28;20397;-69
2023/04/08 00:35:07;;;;;;;4.10;1.30;;;;;;;;;;5051930;28;20381;-69
2023/04/08 00:37:34;;;;;;;2.40;1.17;;;;;;;;;;5052323;28;20409;-69
2023/04/08 00:40:00;;;;;;;2.70;1.02;;;;;;;;;;5055810;28;20024;-69
2023/04/08 00:42:27;;;;;;;4.30;1.25;;;;;;;;;;5055861;28;20029;-69
2023/04/08 00:44:53;;;;;;;2.00;1.20;;;;;;;;;;5056728;28;20017;-69
2023/04/08 00:47:20;;;;;;;2.60;1.00;;;;;;;;;;5056121;28;20044;-69
2023/04/08 00:49:46;;;;;;;2.28;1.25;;;;;;;;;;5056207;28;20029;-69
2023/04/08 00:52:13;;;;;;;2.72;1.27;;;;;;;;;;5055835;28;20029;-69
2023/04/08 00:54:39;;;;;;;4.70;1.42;;;;;;;;;;5056206;28;20535;-69
2023/04/08 00:57:06;;;;;;;3.97;1.40;;;;;;;;;;5055862;28;20037;-69
2023/04/08 00:59:32;;;;;;;1.85;1.20;;;;;;;;;;5055796;28;20481;-69
2023/04/08 01:02:05;;;;;;;2.45;1.00;;;;;;;;;;5056041;28;20032;-69
2023/04/08 01:04:47;;;;;;;3.80;1.20;;;;;;;;;;5055774;28;20036;-69
2023/04/08 01:07:26;;;;;;;3.33;1.20;;;;;;;;;;5055453;28;20040;-69
2023/04/08 01:09:54;;;;;;;4.20;1.33;;;;;;;;;;5055681;28;20021;-69
2023/04/08 01:12:28;;;;;;;2.28;0.88;;;;;;;;;;5055637;28;20021;-69
2023/04/08 01:15:07;;;;;;;2.13;0.95;;;;;;;;;;5055581;28;20013;-69
2023/04/08 01:17:35;;;;;;;2.35;1.40;;;;;;;;;;5055598;28;20035;-69
2023/04/08 01:20:03;;;;;;;3.35;0.95;;;;;;;;;;5055249;28;20478;-69
2023/04/08 01:22:35;;;;;;;2.67;1.20;;;;;;;;;;5055449;28;20062;-69
2023/04/08 01:25:06;;;;;;;1.92;1.08;;;;;;;;;;5055389;28;20023;-69
2023/04/08 01:27:33;;;;;;;3.08;1.10;;;;;;;;;;5055533;28;20041;-69
2023/04/08 01:30:00;;;;;;;2.42;0.85;;;;;;;;;;5055174;28;20032;-69
2023/04/08 01:32:27;;;;;;;2.15;1.10;;;;;;;;;;5055099;28;20512;-69
2023/04/08 01:34:54;;;;;;;3.17;1.30;;;;;;;;;;5055320;28;20519;-69
2023/04/08 01:37:21;;;;;;;3.40;1.35;;;;;;;;;;5055764;28;20035;-69
2023/04/08 01:39:48;;;;;;;3.90;1.25;;;;;;;;;;5054883;28;20065;-68
2023/04/08 01:42:15;;;;;;;2.47;1.17;;;;;;;;;;5054929;28;20021;-69
2023/04/08 01:44:42;;;;;;;3.15;0.93;;;;;;;;;;5055114;28;20021;-69
2023/04/08 01:47:10;;;;;;;3.88;1.10;;;;;;;;;;5054987;28;20078;-69
2023/04/08 01:49:36;;;;;;;2.75;0.90;;;;;;;;;;5054611;28;20509;-68
2023/04/08 01:52:03;;;;;;;2.08;1.08;;;;;;;;;;5054491;28;20039;-69
2023/04/08 01:54:29;;;;;;;4.82;1.27;;;;;;;;;;5054640;28;20028;-68
2023/04/08 01:56:57;;;;;;;9.95;1.90;;;;;;;;;;5054745;28;20043;-69
2023/04/08 01:59:24;;;;;;;5.05;2.00;;;;;;;;;;5054694;28;20029;-69
2023/04/08 02:01:51;;;;;;;3.97;1.52;;;;;;;;;;5054285;28;20515;-69
2023/04/08 02:04:17;;;;;;;3.63;1.08;;;;;;;;;;5054706;28;20044;-69
2023/04/08 02:06:45;;;;;;;2.63;1.08;;;;;;;;;;5054498;28;20478;-69
2023/04/08 02:09:12;;;;;;;2.03;0.82;;;;;;;;;;5054571;28;20017;-69
2023/04/08 02:11:38;;;;;;;1.67;1.00;;;;;;;;;;5054583;28;20387;-69
2023/04/08 02:14:05;;;;;;;3.88;1.00;;;;;;;;;;5054654;28;20021;-69
2023/04/08 02:16:34;;;;;;;2.15;1.00;;;;;;;;;;5054240;28;20504;-69
2023/04/08 02:19:06;;;;;;;2.47;0.93;;;;;;;;;;5054313;28;20021;-69
2023/04/08 02:21:42;;;;;;;4.25;0.98;;;;;;;;;;5054462;28;20027;-68
2023/04/08 02:24:12;;;;;;;1.67;1.05;;;;;;;;;;5054095;28;20408;-69
2023/04/08 02:26:39;;;;;;;1.40;0.90;;;;;;;;;;5054281;28;20033;-69
2023/04/08 02:29:05;;;;;;;2.28;1.00;;;;;;;;;;5054018;28;20025;-70
2023/04/08 02:31:32;;;;;;;1.63;0.90;;;;;;;;;;5054311;28;20528;-69
2023/04/08 02:33:59;;;;;;;1.98;0.93;;;;;;;;;;5054093;28;20097;-69
2023/04/08 02:36:26;;;;;;;2.20;1.00;;;;;;;;;;5053885;28;20500;-69
2023/04/08 02:38:52;;;;;;;3.08;0.90;;;;;;;;;;5054068;28;20043;-69
2023/04/08 02:41:20;;;;;;;3.08;0.93;;;;;;;;;;5053915;28;20031;-69
2023/04/08 02:43:46;;;;;;;1.30;1.10;;;;;;;;;;5053976;28;20037;-68
2023/04/08 02:46:13;;;;;;;2.08;1.17;;;;;;;;;;5053904;28;20375;-69
2023/04/08 02:48:39;;;;;;;2.70;1.05;;;;;;;;;;5052746;28;20041;-69
2023/04/08 02:51:05;;;;;;;2.47;1.00;;;;;;;;;;5053847;28;20017;-69
2023/04/08 02:53:32;;;;;;;3.17;1.10;;;;;;;;;;5053497;28;20039;-68
2023/04/08 02:55:58;;;;;;;2.15;0.90;;;;;;;;;;5053852;28;20035;-69
2023/04/08 02:58:25;;;;;;;3.05;1.23;;;;;;;;;;5053691;28;20485;-69
2023/04/08 03:00:51;;;;;;;3.30;1.45;;;;;;;;;;5052368;28;20489;-69
2023/04/08 03:03:17;;;;;;;3.30;1.15;;;;;;;;;;5053135;28;20055;-69
2023/04/08 03:05:44;;;;;;;4.50;1.23;;;;;;;;;;5053145;28;20013;-69
2023/04/08 03:08:10;;;;;;;3.22;1.20;;;;;;;;;;5053244;28;20501;-69
2023/04/08 03:10:36;;;;;;;3.22;1.10;;;;;;;;;;5053451;28;20032;-69
2023/04/08 03:13:03;;;;;;;3.83;1.40;;;;;;;;;;5053391;28;20032;-69
2023/04/08 03:15:29;;;;;;;2.45;1.05;;;;;;;;;;5053100;28;20363;-69
2023/04/08 03:17:56;;;;;;;3.88;1.20;;;;;;;;;;5053173;28;20017;-69
2023/04/08 03:20:22;;;;;;;4.70;1.27;;;;;;;;;;5052981;28;20086;-69
2023/04/08 03:22:48;;;;;;;4.13;1.30;;;;;;;;;;5053308;28;20017;-69
2023/04/08 03:25:15;;;;;;;2.95;1.20;;;;;;;;;;5053058;28;20021;-69
2023/04/08 03:27:41;;;;;;;3.80;1.13;;;;;;;;;;5053199;28;20047;-69
2023/04/08 03:30:08;;;;;;;3.78;1.10;;;;;;;;;;5052966;28;20045;-69
2023/04/08 03:32:34;;;;;;;2.70;1.05;;;;;;;;;;5052979;28;20035;-69
2023/04/08 03:35:01;;;;;;;3.20;1.10;;;;;;;;;;5052762;28;20028;-69
2023/04/08 03:37:27;;;;;;;1.05;0.90;;;;;;;;;;5052731;28;20017;-69
2023/04/08 03:39:55;;;;;;;2.58;1.08;;;;;;;;;;5052898;28;20028;-68
2023/04/08 03:42:21;;;;;;;2.60;1.20;;;;;;;;;;5052591;28;20029;-68
2023/04/08 03:44:47;;;;;;;3.28;1.20;;;;;;;;;;5052805;28;20036;-69
2023/04/08 03:47:14;;;;;;;2.83;1.40;;;;;;;;;;5052666;28;20029;-69
2023/04/08 03:49:40;;;;;;;2.38;1.30;;;;;;;;;;5034734;28;20036;-69
2023/04/08 03:52:07;;;;;;;1.80;1.10;;;;;;;;;;5052878;28;20056;-69
2023/04/08 03:54:33;;;;;;;2.85;1.10;;;;;;;;;;5052552;28;20045;-69
2023/04/08 03:57:00;;;;;;;2.33;1.20;;;;;;;;;;5052732;28;20028;-69
2023/04/08 03:59:26;;;;;;;2.88;1.30;;;;;;;;;;5052106;28;20452;-69
2023/04/08 04:01:52;;;;;;;3.03;1.10;;;;;;;;;;5052473;28;20473;-69
2023/04/08 04:04:19;;;;;;;3.75;1.40;;;;;;;;;;5052136;28;20032;-69
2023/04/08 04:06:45;;;;;;;3.38;1.27;;;;;;;;;;5052409;28;20095;-68
2023/04/08 04:09:12;;;;;;;3.03;1.27;;;;;;;;;;5052317;28;20376;-69
2023/04/08 04:11:38;;;;;;;2.63;1.10;;;;;;;;;;5052402;28;20051;-68
2023/04/08 04:14:04;;;;;;;6.13;1.40;;;;;;;;;;5051820;28;20021;-69
2023/04/08 04:16:31;;;;;;;3.00;1.25;;;;;;;;;;5052032;28;20078;-69
2023/04/08 04:18:57;;;;;;;5.28;1.40;;;;;;;;;;5052248;28;20033;-68
2023/04/08 04:21:23;;;;;;;4.47;1.65;;;;;;;;;;5052502;28;20111;-69
2023/04/08 04:23:50;;;;;;;3.63;1.40;;;;;;;;;;5052137;28;20489;-69
2023/04/08 04:26:16;;;;;;;3.30;1.42;;;;;;;;;;5052203;28;20032;-69
2023/04/08 04:28:42;;;;;;;2.40;1.33;;;;;;;;;;5051884;28;20035;-69
2023/04/08 04:31:17;;;;;;;3.90;1.45;;;;;;;;;;5051848;28;20040;-69
2023/04/08 04:33:43;;;;;;;1.85;1.20;;;;;;;;;;5051936;28;20036;-69
2023/04/08 04:36:10;;;;;;;3.72;1.40;;;;;;;;;;5052059;28;20405;-69
2023/04/08 04:38:37;;;;;;;2.88;1.60;;;;;;;;;;5051737;28;20021;-69
2023/04/08 04:41:04;;;;;;;1.65;1.55;;;;;;;;;;5052094;28;20043;-69
2023/04/08 04:43:30;;;;;;;3.10;1.60;;;;;;;;;;5052060;28;20482;-68
2023/04/08 04:45:57;;;;;;;2.80;1.60;;;;;;;;;;5051864;28;20039;-69
2023/04/08 04:48:23;;;;;;;3.25;1.50;;;;;;;;;;5051852;28;20017;-68
2023/04/08 04:50:56;;;;;;;3.17;1.92;;;;;;;;;;5052353;28;20488;-69
2023/04/08 04:53:22;;;;;;;2.88;1.67;;;;;;;;;;5052263;28;20037;-69
2023/04/08 04:55:49;;;;;;;4.28;2.08;;;;;;;;;;5051443;28;20388;-69
2023/04/08 04:58:16;;;;;;;6.13;1.63;;;;;;;;;;5051959;28;20024;-68
2023/04/08 05:00:42;;;;;;;3.47;1.77;;;;;;;;;;5051524;28;20029;-68
2023/04/08 05:03:08;;;;;;;3.08;1.60;;;;;;;;;;5051474;28;20393;-69
2023/04/08 05:05:35;;;;;;;1.85;1.40;;;;;;;;;;5051962;28;20029;-69
2023/04/08 05:08:01;;;;;;;2.05;1.52;;;;;;;;;;5051573;28;20041;-69
2023/04/08 05:10:27;;;;;;;4.25;1.65;;;;;;;;;;5051481;28;20478;-69
2023/04/08 05:12:54;;;;;;;2.00;1.33;;;;;;;;;;5051750;28;20029;-69
2023/04/08 05:15:20;;;;;;;2.53;1.48;;;;;;;;;;5051296;28;20029;-69
2023/04/08 05:17:46;;;;;;;6.90;1.77;;;;;;;;;;5051188;28;20032;-69
2023/04/08 05:20:13;;;;;;;7.13;1.80;;;;;;;;;;5051526;28;20047;-69
2023/04/08 05:22:39;;;;;;;4.40;2.00;;;;;;;;;;5051217;28;20033;-67
2023/04/08 05:25:05;;;;;;;6.82;2.53;;;;;;;;;;5051752;28;20025;-69
2023/04/08 05:27:32;;;;;;;3.70;2.10;;;;;;;;;;5055199;28;20420;-68
2023/04/08 05:29:58;;;;;;;6.18;2.30;;;;;;;;;;5055204;28;20055;-68
2023/04/08 05:32:25;;;;;;;3.13;2.05;;;;;;;;;;5055180;28;20032;-69
2023/04/08 05:34:51;;;;;;;6.28;2.20;;;;;;;;;;5055074;28;20017;-68
2023/04/08 05:37:17;;;;;;;4.68;2.13;;;;;;;;;;5053623;28;20432;-69
2023/04/08 05:39:43;;;;;;;3.53;2.08;;;;;;;;;;5055161;28;20027;-69
2023/04/08 05:42:12;;;;;;;9.02;5.50;;;;;;;;;;5054774;28;20031;-69
2023/04/08 05:44:40;;;;;;;7.93;4.70;;;;;;;;;;5054948;28;20033;-69
2023/04/08 05:47:07;;;;;;;6.20;2.58;;;;;;;;;;5054484;28;20029;-69
2023/04/08 05:49:33;;;;;;;3.33;1.60;;;;;;;;;;5054928;28;20024;-69
2023/04/08 05:51:59;;;;;;;3.50;1.95;;;;;;;;;;5054675;28;20501;-69
2023/04/08 05:54:26;;;;;;;7.18;2.22;;;;;;;;;;5054445;28;20028;-69
2023/04/08 05:56:52;;;;;;;5.75;2.95;;;;;;;;;;5054883;28;20020;-68
2023/04/08 05:59:18;;;;;;;3.65;2.00;;;;;;;;;;5054154;28;20025;-69
2023/04/08 06:01:45;;;;;;;4.63;2.65;;;;;;;;;;5054558;28;20029;-69
2023/04/08 06:04:11;;;;;;;7.85;4.43;;;;;;;;;;5054500;28;20374;-69
2023/04/08 06:06:38;;;;;;;7.60;4.53;;;;;;;;;;5054175;28;20048;-69
2023/04/08 06:09:05;;;;;;;10.40;4.63;;;;;;;;;;5054511;28;20013;-69
2023/04/08 06:11:31;;;;;;;10.65;3.90;;;;;;;;;;5054531;28;20040;-69
2023/04/08 06:13:57;;;;;;;10.23;3.33;;;;;;;;;;5054263;28;20025;-69
2023/04/08 06:16:24;;;;;;;8.25;3.35;;;;;;;;;;5054422;28;20486;-69
2023/04/08 06:18:50;;;;;;;15.35;4.43;;;;;;;;;;5054226;28;20033;-69
2023/04/08 06:21:17;;;;;;;5.78;2.78;;;;;;;;;;5054256;28;20021;-69
2023/04/08 06:23:43;;;;;;;8.77;2.60;;;;;;;;;;5054222;28;20025;-68
2023/04/08 06:26:10;;;;;;;4.70;2.20;;;;;;;;;;5054147;28;20098;-69
2023/04/08 06:28:36;;;;;;;5.05;2.22;;;;;;;;;;5054195;28;20037;-69
2023/04/08 06:31:02;;;;;;;2.80;1.70;;;;;;;;;;5053522;28;20045;-69
2023/04/08 06:33:29;;;;;;;4.85;2.35;;;;;;;;;;5054002;28;20400;-69
2023/04/08 06:36:05;;;;;;;6.78;2.40;;;;;;;;;;5053890;28;20027;-69
2023/04/08 06:38:31;;;;;;;3.58;2.45;;;;;;;;;;5053783;28;20031;-69
2023/04/08 06:41:04;;;;;;;4.47;2.00;;;;;;;;;;5053877;28;20021;-69
2023/04/08 06:43:30;;;;;;;7.13;1.90;;;;;;;;;;5053821;28;20074;-69
2023/04/08 06:45:57;;;;;;;4.43;2.40;;;;;;;;;;5053738;28;20470;-69
2023/04/08 06:48:27;;;;;;;7.18;2.47;;;;;;;;;;5053625;28;20376;-69
2023/04/08 06:50:55;;;;;;;6.25;2.35;;;;;;;;;;5052667;28;20025;-69
2023/04/08 06:53:22;;;;;;;7.65;2.28;;;;;;;;;;5053697;28;20031;-69
2023/04/08 06:55:48;;;;;;;5.70;2.45;;;;;;;;;;5053541;28;20033;-69
2023/04/08 06:58:15;;;;;;;4.80;2.53;;;;;;;;;;5053582;28;20017;-69
2023/04/08 07:00:41;;;;;;;4.45;1.95;;;;;;;;;;5053381;28;20040;-69
2023/04/08 07:03:08;;;;;;;4.10;2.08;;;;;;;;;;5053540;28;20033;-69
2023/04/08 07:05:37;;;;;;;4.45;2.00;;;;;;;;;;5053290;28;20035;-69
2023/04/08 07:08:05;;;;;;;8.25;2.28;;;;;;;;;;5053271;28;20048;-69
2023/04/08 07:10:31;;;;;;;3.55;1.90;;;;;;;;;;5053260;28;20371;-69
2023/04/08 07:12:58;;;;;;;4.32;1.50;;;;;;;;;;5053301;28;20090;-69
2023/04/08 07:15:24;;;;;;;3.40;1.83;;;;;;;;;;5053357;28;20486;-69
2023/04/08 07:17:51;;;;;;;3.78;1.98;;;;;;;;;;5053349;28;20025;-69
2023/04/08 07:20:17;;;;;;;6.10;2.05;;;;;;;;;;5052893;28;20025;-69
2023/04/08 07:22:43;;;;;;;5.88;2.15;;;;;;;;;;5053062;28;20029;-69
2023/04/08 07:25:10;;;;;;;3.47;1.77;;;;;;;;;;5053009;28;20041;-70
2023/04/08 07:27:36;;;;;;;6.70;2.00;;;;;;;;;;5052870;28;20318;-69
2023/04/08 07:30:03;;;;;;;5.78;2.20;;;;;;;;;;5052584;28;20505;-69
2023/04/08 07:32:30;;;;;;;4.55;1.80;;;;;;;;;;5052670;28;20039;-69
2023/04/08 07:34:56;;;;;;;2.83;1.90;;;;;;;;;;5053031;28;20490;-70
2023/04/08 07:37:22;;;;;;;3.33;1.85;;;;;;;;;;5052836;28;20041;-69
2023/04/08 07:39:48;;;;;;;2.80;1.50;;;;;;;;;;5052890;28;20018;-69
2023/04/08 07:42:15;;;;;;;3.60;1.80;;;;;;;;;;5052377;28;20367;-70
2023/04/08 07:44:41;;;;;;;3.95;1.90;;;;;;;;;;5052447;28;20021;-69
2023/04/08 07:47:08;;;;;;;3.13;1.75;;;;;;;;;;5052541;28;20651;-67
2023/04/08 07:49:35;;;;;;;2.53;1.50;;;;;;;;;;5051942;28;20029;-67
2023/04/08 07:52:01;;;;;;;4.18;1.70;;;;;;;;;;5051316;28;20035;-67
2023/04/08 07:54:28;;;;;;;2.85;1.70;;;;;;;;;;5052364;28;20051;-67
2023/04/08 07:56:54;;;;;;;2.65;1.60;;;;;;;;;;5052549;28;20014;-67
2023/04/08 07:59:20;;;;;;;3.00;1.40;;;;;;;;;;5052193;28;20497;-67
2023/04/08 08:01:47;;;;;;;3.05;1.73;;;;;;;;;;5052100;28;20025;-67
2023/04/08 08:04:13;;;;;;;2.90;1.80;;;;;;;;;;5052432;28;20028;-68
2023/04/08 08:06:39;;;;;;;2.65;1.55;;;;;;;;;;5052359;28;20040;-67
2023/04/08 08:09:06;;;;;;;4.47;1.73;;;;;;;;;;5052478;28;20037;-67
2023/04/08 08:11:32;;;;;;;2.50;1.40;;;;;;;;;;5052122;28;20035;-67
2023/04/08 08:13:58;;;;;;;4.47;1.48;;;;;;;;;;5052073;28;20039;-67
2023/04/08 08:16:27;;;;;;;1.73;1.20;;;;;;;;;;5052353;28;20066;-67
2023/04/08 08:18:54;;;;;;;2.35;1.10;;;;;;;;;;5050877;28;20025;-67
2023/04/08 08:21:20;;;;;;;2.53;1.25;;;;;;;;;;5052203;28;20025;-67
2023/04/08 08:23:47;;;;;;;3.25;1.30;;;;;;;;;;5052080;28;20013;-67
2023/04/08 08:26:13;;;;;;;2.45;1.23;;;;;;;;;;5052185;28;20017;-67
2023/04/08 08:28:39;;;;;;;1.90;1.50;;;;;;;;;;5051984;28;20502;-67
2023/04/08 08:31:06;;;;;;;2.70;1.33;;;;;;;;;;5051737;28;20029;-67
2023/04/08 08:33:32;;;;;;;2.80;1.40;;;;;;;;;;5051918;28;20031;-67
2023/04/08 08:35:59;;;;;;;2.83;1.33;;;;;;;;;;5051714;28;20021;-67
2023/04/08 08:38:25;;;;;;;2.97;1.38;;;;;;;;;;5051899;28;20021;-67
2023/04/08 08:40:55;;;;;;;2.22;1.27;;;;;;;;;;5052089;28;20021;-67
2023/04/08 08:43:22;;;;;;;2.30;1.30;;;;;;;;;;5052099;28;20017;-67
2023/04/08 08:45:48;;;;;;;3.58;1.23;;;;;;;;;;5051918;28;20074;-67
2023/04/08 08:48:15;;;;;;;1.67;1.10;;;;;;;;;;5051748;28;20033;-67
2023/04/08 08:50:41;;;;;;;2.65;1.15;;;;;;;;;;5051636;28;20025;-68
2023/04/08 08:53:07;;;;;;;1.15;1.05;;;;;;;;;;5051817;28;20134;-67
2023/04/08 08:55:34;;;;;;;1.67;0.95;;;;;;;;;;5051476;28;20019;-67
2023/04/08 08:58:00;;;;;;;2.10;1.23;;;;;;;;;;5051623;28;20435;-67
2023/04/08 09:00:33;;;;;;;3.05;1.02;;;;;;;;;;5054144;28;20021;-67
2023/04/08 09:03:18;;;;;;;1.45;1.00;;;;;;;;;;5055681;28;20397;-68
2023/04/08 09:05:51;;;;;;;1.95;1.20;;;;;;;;;;5055784;28;20033;-67
2023/04/08 09:08:28;;;;;;;1.00;0.90;;;;;;;;;;5055232;28;20036;-67
2023/04/08 09:10:55;;;;;;;1.85;1.10;;;;;;;;;;5055769;28;20481;-67
2023/04/08 09:13:24;;;;;;;1.92;1.00;;;;;;;;;;5055774;28;20028;-67
2023/04/08 09:16:09;;;;;;;1.67;1.00;;;;;;;;;;5055738;28;20040;-67
2023/04/08 09:18:36;;;;;;;2.20;0.90;;;;;;;;;;5055382;28;20025;-67
2023/04/08 09:21:03;;;;;;;1.45;1.00;;;;;;;;;;5055346;28;20017;-68
2023/04/08 09:23:40;;;;;;;1.60;1.05;;;;;;;;;;5055116;28;20381;-67
2023/04/08 09:26:16;;;;;;;0.95;0.70;;;;;;;;;;5055608;28;20043;-67
2023/04/08 09:28:44;;;;;;;2.22;0.85;;;;;;;;;;5055829;28;20036;-67
2023/04/08 09:31:20;;;;;;;1.63;0.90;;;;;;;;;;5055114;28;20498;-67
2023/04/08 09:33:48;;;;;;;1.50;0.80;;;;;;;;;;5055104;28;20021;-68
2023/04/08 09:36:15;;;;;;;1.17;0.88;;;;;;;;;;5055220;28;20025;-68
2023/04/08 09:38:41;;;;;;;1.15;0.80;;;;;;;;;;5053694;28;20029;-67
2023/04/08 09:41:08;;;;;;;1.35;0.80;;;;;;;;;;5055022;28;20039;-67
2023/04/08 09:43:39;;;;;;;0.80;0.60;;;;;;;;;;5055026;28;20048;-67
2023/04/08 09:46:10;;;;;;;0.70;0.60;;;;;;;;;;5055110;28;20436;-68
2023/04/08 09:48:40;;;;;;;2.40;0.80;;;;;;;;;;5054796;28;20032;-68
2023/04/08 09:51:07;;;;;;;1.08;0.70;;;;;;;;;;5054707;28;20078;-67
2023/04/08 09:53:36;;;;;;;0.77;0.70;;;;;;;;;;5055052;28;20021;-67
2023/04/08 09:56:04;;;;;;;0.90;0.70;;;;;;;;;;5054662;28;20029;-67
2023/04/08 09:58:38;;;;;;;1.45;0.70;;;;;;;;;;5053296;28;20041;-68
2023/04/08 10:01:04;;;;;;;1.33;0.63;;;;;;;;;;5054549;28;20029;-67
2023/04/08 10:03:34;;;;;;;0.50;0.50;;;;;;;;;;5053363;28;20033;-67
2023/04/08 10:06:01;;;;;;;;;;;;;;;;;;5054516;28;20033;-67
2023/04/08 10:08:27;;;;;;;0.70;0.60;;;;;;;;;;5054426;28;19909;-67
2023/04/08 10:10:55;;;;;;;0.50;0.50;;;;;;;;;;5053109;28;20024;-67
2023/04/08 10:13:22;;;;;;;0.85;0.70;;;;;;;;;;5054393;28;20025;-68
2023/04/08 10:15:48;;;;;;;3.35;0.70;;;;;;;;;;5054590;28;20040;-67
2023/04/08 10:18:17;;;;;;;0.90;0.73;;;;;;;;;;5054305;28;20409;-67
2023/04/08 10:20:44;;;;;;;1.15;0.88;;;;;;;;;;5054035;28;20029;-68
2023/04/08 10:23:12;;;;;;;1.67;0.70;;;;;;;;;;5054051;28;20031;-67
2023/04/08 10:25:40;;;;;;;1.08;0.88;;;;;;;;;;5054510;28;20021;-67
2023/04/08 10:28:13;;;;;;;0.60;0.60;;;;;;;;;;5054163;28;20477;-67
2023/04/08 10:30:39;;;;;;;0.60;0.50;;;;;;;;;;5053993;28;20041;-68
2023/04/08 10:33:13;;;;;;;0.93;0.63;;;;;;;;;;5053789;28;20033;-67
2023/04/08 10:35:50;;;;;;;1.60;0.70;;;;;;;;;;5053835;28;20021;-67
2023/04/08 10:38:17;;;;;;;1.02;0.70;;;;;;;;;;5054041;28;20036;-67
2023/04/08 10:40:43;;;;;;;1.25;0.70;;;;;;;;;;5054054;28;20025;-67
2023/04/08 10:43:10;;;;;;;0.82;0.70;;;;;;;;;;5053722;28;20412;-67
2023/04/08 10:45:37;;;;;;;2.92;0.70;;;;;;;;;;5053952;28;20095;-67
2023/04/08 10:48:13;;;;;;;1.15;0.70;;;;;;;;;;5053984;28;20029;-67
2023/04/08 10:50:39;;;;;;;1.98;0.70;;;;;;;;;;5053520;28;20028;-67
2023/04/08 10:53:07;;;;;;;0.68;0.68;;;;;;;;;;5053403;28;20031;-67
2023/04/08 10:55:33;;;;;;;1.63;0.60;;;;;;;;;;5053502;28;20017;-67
2023/04/08 10:58:10;;;;;;;0.50;0.50;;;;;;;;;;5053301;28;20420;-67
2023/04/08 11:00:37;;;;;;;1.65;0.50;;;;;;;;;;5053723;28;20029;-67
2023/04/08 11:03:07;;;;;;;0.43;0.43;;;;;;;;;;5053488;28;20032;-67
2023/04/08 11:05:35;;;;;;;0.88;0.70;;;;;;;;;;5053104;28;20443;-68
2023/04/08 11:08:02;;;;;;;1.25;0.70;;;;;;;;;;5053153;28;20028;-67
2023/04/08 11:10:29;;;;;;;2.60;0.70;;;;;;;;;;5053334;28;20025;-67
2023/04/08 11:12:55;;;;;;;1.33;0.80;;;;;;;;;;5053222;28;20032;-67
2023/04/08 11:15:23;;;;;;;1.08;1.05;;;;;;;;;;5053020;28;20023;-67
2023/04/08 11:17:50;;;;;;;0.80;0.80;;;;;;;;;;5052991;28;20041;-67
2023/04/08 11:20:17;;;;;;;0.65;0.65;;;;;;;;;;5053143;28;20029;-67
2023/04/08 11:22:44;;;;;;;1.92;0.90;;;;;;;;;;5052281;28;20461;-67
2023/04/08 11:25:11;;;;;;;0.68;0.68;;;;;;;;;;5052725;28;20021;-67
2023/04/08 11:27:39;;;;;;;1.13;0.70;;;;;;;;;;5053023;28;20020;-67
2023/04/08 11:30:06;;;;;;;1.00;0.90;;;;;;;;;;5052738;28;20082;-67
2023/04/08 11:32:34;;;;;;;0.88;0.65;;;;;;;;;;5052820;28;20554;-67
2023/04/08 11:35:01;;;;;;;0.47;0.47;;;;;;;;;;5052479;28;20409;-67
2023/04/08 11:37:36;;;;;;;1.77;0.80;;;;;;;;;;5052773;28;20448;-67
2023/04/08 11:40:06;;;;;;;1.20;1.00;;;;;;;;;;5052940;28;20020;-68
2023/04/08 11:42:32;;;;;;;0.77;0.77;;;;;;;;;;5052694;28;20058;-67
2023/04/08 11:44:58;;;;;;;0.63;0.63;;;;;;;;;;5049445;28;20111;-67
2023/04/08 11:47:32;;;;;;;0.77;0.55;;;;;;;;;;5040930;28;20098;-67
2023/04/08 11:49:58;;;;;;;0.60;0.60;;;;;;;;;;5052627;28;20025;-67
2023/04/08 11:52:44;;;;;;;0.50;0.50;;;;;;;;;;5052795;28;20043;-67
2023/04/08 11:55:24;;;;;;;0.60;0.60;;;;;;;;;;5052420;28;20029;-67
2023/04/08 11:57:51;;;;;;;;;;;;;;;;;;5052751;28;20063;-67
2023/04/08 12:00:18;;;;;;;0.57;0.52;;;;;;;;;;5052417;28;19912;-67
2023/04/08 12:02:45;;;;;;;0.98;0.68;;;;;;;;;;5051970;28;20029;-67
2023/04/08 12:05:12;;;;;;;0.93;0.80;;;;;;;;;;5052526;28;20025;-67
2023/04/08 12:07:38;;;;;;;0.60;0.60;;;;;;;;;;5052494;28;20025;-68
2023/04/08 12:10:05;;;;;;;0.82;0.70;;;;;;;;;;5051110;28;20032;-67
2023/04/08 12:12:31;;;;;;;0.80;0.63;;;;;;;;;;5052319;28;20017;-67
2023/04/08 12:14:57;;;;;;;0.50;0.50;;;;;;;;;;5052212;28;20028;-67
2023/04/08 12:17:24;;;;;;;0.85;0.70;;;;;;;;;;5051768;28;20033;-68
2023/04/08 12:19:50;;;;;;;0.50;0.50;;;;;;;;;;5052116;28;20028;-67
2023/04/08 12:22:16;;;;;;;0.70;0.70;;;;;;;;;;5052177;28;20377;-67
2023/04/08 12:24:43;;;;;;;2.15;0.90;;;;;;;;;;5051036;28;20025;-67
2023/04/08 12:27:10;;;;;;;0.77;0.60;;;;;;;;;;5052166;28;20033;-67
2023/04/08 12:29:36;;;;;;;0.70;0.60;;;;;;;;;;5051973;28;20041;-67
2023/04/08 12:32:04;;;;;;;0.60;0.60;;;;;;;;;;5051760;28;20032;-67
2023/04/08 12:34:31;;;;;;;2.90;0.90;;;;;;;;;;5051594;28;20066;-67
2023/04/08 12:36:58;;;;;;;1.27;0.60;;;;;;;;;;5052027;28;20036;-67
2023/04/08 12:39:24;;;;;;;1.23;0.80;;;;;;;;;;5051927;28;20027;-68
2023/04/08 12:41:51;;;;;;;0.60;0.60;;;;;;;;;;5051859;28;20029;-67
2023/04/08 12:44:18;;;;;;;1.13;0.60;;;;;;;;;;5051670;28;20017;-67
2023/04/08 12:46:44;;;;;;;1.08;0.70;;;;;;;;;;5051670;28;20029;-67
2023/04/08 12:49:11;;;;;;;0.80;0.77;;;;;;;;;;5052050;28;20017;-67
2023/04/08 12:51:38;;;;;;;0.90;0.90;;;;;;;;;;5050455;28;20031;-67
2023/04/08 12:54:05;;;;;;;0.55;0.55;;;;;;;;;;5051836;28;20021;-67
2023/04/08 12:56:31;;;;;;;0.70;0.70;;;;;;;;;;5051863;28;20094;-67
2023/04/08 12:58:59;;;;;;;0.93;0.82;;;;;;;;;;5051665;28;20031;-67
2023/04/08 13:01:26;;;;;;;0.63;0.63;;;;;;;;;;5050576;28;20035;-67
2023/04/08 13:03:52;;;;;;;2.55;0.70;;;;;;;;;;5051626;28;20027;-67
2023/04/08 13:06:19;;;;;;;0.60;0.60;;;;;;;;;;5052085;28;20024;-67
2023/04/08 13:08:46;;;;;;;0.82;0.68;;;;;;;;;;5051981;28;20032;-67
2023/04/08 13:11:13;;;;;;;0.60;0.60;;;;;;;;;;5051622;28;20507;-67
2023/04/08 13:13:39;;;;;;;0.60;0.60;;;;;;;;;;5052006;28;20029;-66
2023/04/08 13:16:05;;;;;;;0.65;0.60;;;;;;;;;;5051316;28;20051;-67
2023/04/08 13:18:32;;;;;;;0.70;0.70;;;;;;;;;;5051368;28;20029;-67
2023/04/08 13:20:58;;;;;;;0.60;0.60;;;;;;;;;;5051605;28;20024;-67
2023/04/08 13:23:24;;;;;;;0.63;0.63;;;;;;;;;;5051736;28;20041;-66
2023/04/08 13:25:51;;;;;;;0.68;0.68;;;;;;;;;;5051330;28;20031;-67
2023/04/08 13:28:17;;;;;;;0.63;0.63;;;;;;;;;;5051725;28;20037;-67
2023/04/08 13:30:43;;;;;;;0.57;0.55;;;;;;;;;;5051276;28;20041;-67
2023/04/08 13:33:10;;;;;;;1.77;0.70;;;;;;;;;;5051599;28;20036;-67
2023/04/08 13:35:36;;;;;;;0.88;0.80;;;;;;;;;;5051650;28;20025;-67
2023/04/08 13:38:03;;;;;;;0.52;0.52;;;;;;;;;;5051320;28;20025;-67
2023/04/08 13:40:29;;;;;;;0.52;0.52;;;;;;;;;;5051510;28;20025;-67
2023/04/08 13:42:56;;;;;;;0.98;0.70;;;;;;;;;;5051364;28;20025;-67
2023/04/08 13:45:22;;;;;;;0.65;0.60;;;;;;;;;;5051512;28;20090;-67
2023/04/08 13:47:48;;;;;;;0.40;0.40;;;;;;;;;;5054046;28;20489;-66
2023/04/08 13:50:15;;;;;;;1.02;0.50;;;;;;;;;;5055241;28;20032;-67
2023/04/08 13:52:41;;;;;;;2.58;0.60;;;;;;;;;;5054866;28;20017;-67
2023/04/08 13:55:08;;;;;;;0.55;0.55;;;;;;;;;;5054680;28;20036;-67
2023/04/08 13:57:35;;;;;;;1.00;0.60;;;;;;;;;;5054556;28;20045;-67
2023/04/08 14:00:02;;;;;;;1.48;0.70;;;;;;;;;;5054453;28;20470;-67
2023/04/08 14:02:28;;;;;;;11.90;0.75;;;;;;;;;;5053273;28;20039;-67
2023/04/08 14:04:55;;;;;;;0.57;0.50;;;;;;;;;;5054820;28;20051;-67
2023/04/08 14:07:21;;;;;;;0.43;0.43;;;;;;;;;;5054787;28;20021;-67
2023/04/08 14:09:48;;;;;;;0.70;0.50;;;;;;;;;;5054624;28;20017;-67
2023/04/08 14:12:14;;;;;;;1.25;0.73;;;;;;;;;;5054390;28;20021;-67
2023/04/08 14:14:40;;;;;;;0.68;0.52;;;;;;;;;;5054402;28;20029;-67
2023/04/08 14:17:07;;;;;;;0.68;0.50;;;;;;;;;;5054238;28;20099;-68
2023/04/08 14:19:33;;;;;;;0.40;0.40;;;;;;;;;;5054655;28;20024;-67
2023/04/08 14:22:00;;;;;;;0.40;0.40;;;;;;;;;;5053998;28;20029;-67
2023/04/08 14:24:26;;;;;;;0.63;0.63;;;;;;;;;;5054316;28;20021;-67
2023/04/08 14:26:52;;;;;;;0.70;0.60;;;;;;;;;;5054177;28;20027;-67
2023/04/08 14:29:19;;;;;;;0.85;0.50;;;;;;;;;;5054067;28;20500;-67
2023/04/08 14:31:45;;;;;;;2.15;0.50;;;;;;;;;;5054084;28;20037;-67
2023/04/08 14:34:11;;;;;;;0.60;0.60;;;;;;;;;;5054553;28;20029;-66
2023/04/08 14:36:38;;;;;;;1.35;0.80;;;;;;;;;;5052874;28;20405;-67
2023/04/08 14:39:04;;;;;;;1.42;0.63;;;;;;;;;;5053878;28;20028;-67
2023/04/08 14:41:30;;;;;;;1.50;0.50;;;;;;;;;;5054002;28;20028;-67
2023/04/08 14:43:57;;;;;;;0.50;0.50;;;;;;;;;;5053994;28;20031;-67